createdAt,value
2023-01-25T00:03:38.541Z,96871.00
2023-01-25T00:07:41.337Z,96861.00
2023-01-25T00:11:45.600Z,96874.00
2023-01-25T00:15:48.458Z,96869.00
2023-01-25T00:19:52.643Z,96871.00
2023-01-25T00:23:55.935Z,96872.00
2023-01-25T00:27:58.810Z,96867.00
2023-01-25T00:32:28.660Z,96857.00
2023-01-25T00:36:41.751Z,96856.00
2023-01-25T00:40:45.957Z,96865.00
2023-01-25T00:44:49.399Z,96871.00
2023-01-25T00:48:54.725Z,96853.00
2023-01-25T00:52:58.964Z,96847.00
2023-01-25T00:57:01.917Z,96849.00
2023-01-25T01:01:05.810Z,96856.00
2023-01-25T01:05:09.713Z,96855.00
2023-01-25T01:09:16.608Z,96858.00
2023-01-25T01:13:19.434Z,96865.00
2023-01-25T01:17:23.733Z,96861.00
2023-01-25T01:21:26.748Z,96854.00
2023-01-25T01:25:30.917Z,96849.00
2023-01-25T01:29:33.759Z,96848.00
2023-01-25T01:33:36.735Z,96846.00
2023-01-25T01:37:43.207Z,96842.00
2023-01-25T01:41:47.394Z,96850.00
2023-01-25T01:45:56.468Z,96839.00
2023-01-25T01:50:18.085Z,96832.00
2023-01-25T01:54:25.897Z,96835.00
2023-01-25T01:58:33.046Z,96843.00
2023-01-25T02:02:36.477Z,96839.00
2023-01-25T02:06:47.093Z,96826.00
2023-01-25T02:10:52.258Z,96850.00
2023-01-25T02:14:57.216Z,96833.00
2023-01-25T02:19:02.643Z,96835.00
2023-01-25T02:23:17.625Z,96835.00
2023-01-25T02:27:22.499Z,96844.00
2023-01-25T02:31:25.777Z,96834.00
2023-01-25T02:35:39.819Z,96831.00
2023-01-25T02:39:43.519Z,96828.00
2023-01-25T02:43:47.746Z,96836.00
2023-01-25T02:47:50.630Z,96825.00
2023-01-25T02:51:57.383Z,96825.00
2023-01-25T02:56:00.866Z,96819.00
2023-01-25T03:00:07.251Z,96815.00
2023-01-25T03:04:10.824Z,96825.00
2023-01-25T03:08:13.735Z,96814.00
2023-01-25T03:12:17.316Z,96813.00
2023-01-25T03:16:23.313Z,96819.00
2023-01-25T03:20:26.376Z,96816.00
2023-01-25T03:24:29.509Z,96808.00
2023-01-25T03:28:32.535Z,96800.00
2023-01-25T03:32:37.798Z,96799.00
2023-01-25T03:36:44.425Z,96803.00
2023-01-25T03:40:48.218Z,96801.00
2023-01-25T03:44:51.120Z,96800.00
2023-01-25T03:48:55.840Z,96796.00
2023-01-25T03:53:27.559Z,96788.00
2023-01-25T03:57:30.896Z,96793.00
2023-01-25T04:01:38.372Z,96783.00
2023-01-25T04:05:43.077Z,96776.00
2023-01-25T04:09:46.292Z,96783.00
2023-01-25T04:13:49.571Z,96790.00
2023-01-25T04:17:53.978Z,96787.00
2023-01-25T04:22:00.781Z,96780.00
2023-01-25T04:26:12.499Z,96781.00
2023-01-25T04:30:16.547Z,96788.00
2023-01-25T04:34:21.122Z,96777.00
2023-01-25T04:38:25.949Z,96779.00
2023-01-25T04:42:29.834Z,96770.00
2023-01-25T04:46:33.503Z,96764.00
2023-01-25T04:50:38.063Z,96766.00
2023-01-25T04:54:42.475Z,96761.00
2023-01-25T04:58:47.643Z,96731.00
2023-01-25T05:02:50.599Z,96746.00
2023-01-25T05:06:53.514Z,96745.00
2023-01-25T05:10:57.963Z,96752.00
2023-01-25T05:15:23.334Z,96746.00
2023-01-25T05:19:26.238Z,96749.00
2023-01-25T05:23:34.125Z,96739.00
2023-01-25T05:27:38.632Z,96731.00
2023-01-25T05:32:11.769Z,96718.00
2023-01-25T05:36:15.435Z,96727.00
2023-01-25T05:40:19.138Z,96722.00
2023-01-25T05:44:23.918Z,96731.00
2023-01-25T05:48:27.691Z,96743.00
2023-01-25T05:52:30.544Z,96742.00
2023-01-25T05:56:33.719Z,96732.00
2023-01-25T06:00:38.305Z,96729.00
2023-01-25T06:04:41.442Z,96733.00
2023-01-25T06:08:46.572Z,96732.00
2023-01-25T06:12:49.520Z,96721.00
2023-01-25T06:16:54.537Z,96726.00
2023-01-25T06:21:08.126Z,96718.00
2023-01-25T06:25:13.821Z,96717.00
2023-01-25T06:29:16.663Z,96717.00
2023-01-25T06:33:20.797Z,96710.00
2023-01-25T06:37:25.290Z,96692.00
2023-01-25T06:41:28.080Z,96704.00
2023-01-25T06:45:30.892Z,96700.00
2023-01-25T06:49:35.063Z,96705.00
2023-01-25T06:53:40.077Z,96705.00
2023-01-25T06:57:42.860Z,96692.00
2023-01-25T07:01:45.726Z,96693.00
2023-01-25T07:05:51.077Z,96689.00
2023-01-25T07:09:53.891Z,96685.00
2023-01-25T07:13:56.638Z,96680.00
2023-01-25T07:18:08.306Z,96677.00
2023-01-25T07:22:19.061Z,96676.00
2023-01-25T07:26:24.036Z,96683.00
2023-01-25T07:30:26.888Z,96670.00
2023-01-25T07:34:29.961Z,96672.00
2023-01-25T07:38:35.057Z,96676.00
2023-01-25T07:42:38.469Z,96674.00
2023-01-25T07:46:48.991Z,96663.00
2023-01-25T07:51:11.612Z,96663.00
2023-01-25T07:55:16.180Z,96669.00
2023-01-25T07:59:19.021Z,96676.00
2023-01-25T08:03:22.224Z,96672.00
2023-01-25T08:07:25.064Z,96681.00
2023-01-25T08:11:31.585Z,96683.00
2023-01-25T08:15:35.233Z,96684.00
2023-01-25T08:19:38.147Z,96676.00
2023-01-25T08:23:41.034Z,96684.00
2023-01-25T08:27:45.482Z,96675.00
2023-01-25T08:31:48.460Z,96674.00
2023-01-25T08:35:56.069Z,96665.00
2023-01-25T08:39:59.828Z,96668.00
2023-01-25T08:44:04.310Z,96656.00
2023-01-25T08:48:07.163Z,96662.00
2023-01-25T08:52:09.984Z,96662.00
2023-01-25T08:56:14.672Z,96662.00
2023-01-25T09:00:20.343Z,96670.00
2023-01-25T09:04:28.246Z,96658.00
2023-01-25T09:08:31.115Z,96662.00
2023-01-25T09:12:33.947Z,96655.00
2023-01-25T09:16:38.366Z,96654.00
2023-01-25T09:20:41.680Z,96619.00
2023-01-25T09:24:44.981Z,96632.00
2023-01-25T09:28:49.425Z,96633.00
2023-01-25T09:32:54.109Z,96647.00
2023-01-25T09:36:57.059Z,96637.00
2023-01-25T09:41:13.726Z,96618.00
2023-01-25T09:45:27.005Z,96646.00
2023-01-25T09:49:51.886Z,96641.00
2023-01-25T09:53:56.539Z,96621.00
2023-01-25T09:58:02.684Z,96626.00
2023-01-25T10:02:11.240Z,96625.00
2023-01-25T10:06:17.672Z,96626.00
2023-01-25T10:10:24.268Z,96614.00
2023-01-25T10:14:27.815Z,96618.00
2023-01-25T10:18:36.399Z,96608.00
2023-01-25T10:22:47.751Z,96622.00
2023-01-25T10:26:56.668Z,96615.00
2023-01-25T10:31:03.249Z,96611.00
2023-01-25T10:35:29.249Z,96601.00
2023-01-25T10:39:42.718Z,96588.00
2023-01-25T10:43:45.497Z,96588.00
2023-01-25T10:47:50.996Z,96582.00
2023-01-25T10:51:54.200Z,96577.00
2023-01-25T10:56:05.667Z,96584.00
2023-01-25T11:00:24.780Z,96567.00
2023-01-25T11:04:35.157Z,96572.00
2023-01-25T11:08:41.442Z,96563.00
2023-01-25T11:12:45.748Z,96548.00
2023-01-25T11:16:49.345Z,96538.00
2023-01-25T11:21:06.822Z,96531.00
2023-01-25T11:25:30.873Z,96533.00
2023-01-25T11:29:35.053Z,96529.00
2023-01-25T11:33:37.915Z,96529.00
2023-01-25T11:37:55.224Z,96524.00
2023-01-25T11:42:07.802Z,96506.00
2023-01-25T11:46:46.303Z,96516.00
2023-01-25T11:50:56.793Z,96511.00
2023-01-25T11:55:11.165Z,96500.00
2023-01-25T11:59:30.771Z,96477.00
2023-01-25T12:04:08.235Z,96460.00
2023-01-25T12:08:26.187Z,96455.00
2023-01-25T12:12:40.625Z,96452.00
2023-01-25T12:17:06.804Z,96441.00
2023-01-25T12:21:31.372Z,96426.00
2023-01-25T12:25:43.681Z,96432.00
2023-01-25T12:29:50.865Z,96426.00
2023-01-25T12:33:58.722Z,96424.00
2023-01-25T12:38:05.599Z,96411.00
2023-01-25T12:42:17.032Z,96417.00
2023-01-25T12:46:27.228Z,96410.00
2023-01-25T12:50:35.889Z,96400.00
2023-01-25T12:54:43.089Z,96396.00
2023-01-25T12:58:51.355Z,96390.00
2023-01-25T13:03:13.245Z,96392.00
2023-01-25T13:07:23.507Z,96385.00
2023-01-25T13:11:34.495Z,96381.00
2023-01-25T13:15:39.461Z,96379.00
2023-01-25T13:19:43.655Z,96386.00
2023-01-25T13:23:47.865Z,96383.00
2023-01-25T13:27:52.680Z,96372.00
2023-01-25T13:31:58.836Z,96377.00
2023-01-25T13:36:35.404Z,96381.00
2023-01-25T13:40:39.335Z,96370.00
2023-01-25T13:44:46.925Z,96367.00
2023-01-25T13:49:04.805Z,96353.00
2023-01-25T13:53:19.841Z,96358.00
2023-01-25T13:57:24.340Z,96350.00
2023-01-25T14:01:30.355Z,96351.00
2023-01-25T14:05:33.169Z,96346.00
2023-01-25T14:09:36.058Z,96344.00
2023-01-25T14:13:38.879Z,96344.00
2023-01-25T14:17:43.153Z,96348.00
2023-01-25T14:21:45.949Z,96354.00
2023-01-25T14:25:48.863Z,96336.00
2023-01-25T14:29:51.852Z,96341.00
2023-01-25T14:33:58.782Z,96327.00
2023-01-25T14:38:02.063Z,96321.00
2023-01-25T14:42:05.401Z,96317.00
2023-01-25T14:46:23.406Z,96321.00
2023-01-25T14:50:35.465Z,96318.00
2023-01-25T14:54:46.777Z,96313.00
2023-01-25T14:58:58.892Z,96314.00
2023-01-25T15:03:06.737Z,96308.00
2023-01-25T15:07:34.491Z,96321.00
2023-01-25T15:11:45.143Z,96319.00
2023-01-25T15:15:53.169Z,96307.00
2023-01-25T15:19:56.017Z,96311.00
2023-01-25T15:24:04.690Z,96303.00
2023-01-25T15:28:07.696Z,96283.00
2023-01-25T15:32:18.924Z,96269.00
2023-01-25T15:36:21.799Z,96261.00
2023-01-25T15:40:25.979Z,96274.00
2023-01-25T15:44:28.853Z,96274.00
2023-01-25T15:48:34.591Z,96274.00
2023-01-25T15:52:37.384Z,96271.00
2023-01-25T15:56:43.749Z,96271.00
2023-01-25T16:00:46.632Z,96270.00
2023-01-25T16:04:49.548Z,96265.00
2023-01-25T16:08:52.591Z,96257.00
2023-01-25T16:12:57.011Z,96252.00
2023-01-25T16:17:02.583Z,96248.00
2023-01-25T16:21:05.840Z,96248.00
2023-01-25T16:25:09.385Z,96244.00
2023-01-25T16:29:13.829Z,96250.00
2023-01-25T16:33:16.629Z,96239.00
2023-01-25T16:37:19.494Z,96241.00
2023-01-25T16:41:22.410Z,96238.00
2023-01-25T16:45:26.767Z,96220.00
2023-01-25T16:49:30.627Z,96240.00
2023-01-25T16:53:33.630Z,96229.00
2023-01-25T16:57:36.488Z,96221.00
2023-01-25T17:01:41.493Z,96216.00
2023-01-25T17:05:44.694Z,96212.00
2023-01-25T17:09:47.411Z,96216.00
2023-01-25T17:13:50.699Z,96212.00
2023-01-25T17:17:54.863Z,96199.00
2023-01-25T17:21:59.047Z,96193.00
2023-01-25T17:26:05.073Z,96188.00
2023-01-25T17:30:09.778Z,96191.00
2023-01-25T17:34:16.227Z,96176.00
2023-01-25T17:38:20.219Z,96167.00
2023-01-25T17:42:23.041Z,96166.00
2023-01-25T17:46:29.762Z,96170.00
2023-01-25T17:50:34.160Z,96171.00
2023-01-25T17:54:37.280Z,96168.00
2023-01-25T17:58:41.396Z,96157.00
2023-01-25T18:02:46.167Z,96148.00
2023-01-25T18:06:52.291Z,96145.00
2023-01-25T18:10:59.183Z,96136.00
2023-01-25T18:15:01.808Z,96144.00
2023-01-25T18:19:04.897Z,96147.00
2023-01-25T18:23:09.067Z,96145.00
2023-01-25T18:27:19.656Z,96126.00
2023-01-25T18:31:22.867Z,96132.00
2023-01-25T18:35:25.885Z,96121.00
2023-01-25T18:39:30.151Z,96133.00
2023-01-25T18:43:33.477Z,96129.00
2023-01-25T18:47:36.598Z,96125.00
2023-01-25T18:52:01.934Z,96124.00
2023-01-25T18:56:07.842Z,96102.00
2023-01-25T19:00:14.837Z,96107.00
2023-01-25T19:04:17.664Z,96097.00
2023-01-25T19:08:20.463Z,96105.00
2023-01-25T19:12:24.661Z,96095.00
2023-01-25T19:16:27.492Z,96087.00
2023-01-25T19:20:30.325Z,96072.00
2023-01-25T19:24:33.153Z,96065.00
2023-01-25T19:28:38.883Z,96065.00
2023-01-25T19:32:41.791Z,96059.00
2023-01-25T19:36:49.811Z,96055.00
2023-01-25T19:40:52.818Z,96052.00
2023-01-25T19:44:57.045Z,96052.00
2023-01-25T19:49:01.968Z,96049.00
2023-01-25T19:53:04.864Z,96054.00
2023-01-25T19:57:07.675Z,96040.00
2023-01-25T20:01:13.366Z,96035.00
2023-01-25T20:05:16.339Z,96031.00
2023-01-25T20:09:20.411Z,96026.00
2023-01-25T20:13:23.404Z,96020.00
2023-01-25T20:17:27.785Z,96021.00
2023-01-25T20:21:33.471Z,96018.00
2023-01-25T20:25:36.297Z,96014.00
2023-01-25T20:29:39.846Z,96008.00
2023-01-25T20:33:44.056Z,96008.00
2023-01-25T20:37:49.203Z,96012.00
2023-01-25T20:41:53.553Z,96004.00
2023-01-25T20:45:56.888Z,95998.00
2023-01-25T20:50:01.222Z,96006.00
2023-01-25T20:54:04.112Z,96001.00
2023-01-25T20:58:07.648Z,95990.00
2023-01-25T21:02:11.631Z,95986.00
2023-01-25T21:06:16.036Z,95988.00
2023-01-25T21:10:19.218Z,95987.00
2023-01-25T21:14:22.039Z,95977.00
2023-01-25T21:18:24.972Z,95977.00
2023-01-25T21:22:30.223Z,95976.00
2023-01-25T21:26:34.413Z,95970.00
2023-01-25T21:30:37.201Z,95978.00
2023-01-25T21:34:40.000Z,95965.00
2023-01-25T21:38:46.026Z,95965.00
2023-01-25T21:42:48.780Z,95951.00
2023-01-25T21:47:19.773Z,95952.00
2023-01-25T21:51:33.073Z,95955.00
2023-01-25T21:55:37.169Z,95955.00
2023-01-25T21:59:40.775Z,95942.00
2023-01-25T22:03:47.329Z,95936.00
2023-01-25T22:07:50.112Z,95923.00
2023-01-25T22:11:54.355Z,95923.00
2023-01-25T22:15:59.932Z,95920.00
2023-01-25T22:20:02.713Z,95924.00
2023-01-25T22:24:06.634Z,95917.00
2023-01-25T22:28:15.535Z,95916.00
2023-01-25T22:32:18.351Z,95920.00
2023-01-25T22:36:23.201Z,95915.00
2023-01-25T22:40:26.143Z,95904.00
2023-01-25T22:44:30.289Z,95899.00
2023-01-25T22:48:33.752Z,95899.00
2023-01-25T22:52:36.794Z,95885.00
2023-01-25T22:56:40.259Z,95896.00
2023-01-25T23:00:44.443Z,95881.00
2023-01-25T23:04:47.303Z,95877.00
2023-01-25T23:08:50.408Z,95875.00
2023-01-25T23:12:53.905Z,95860.00
2023-01-25T23:17:18.792Z,95855.00
2023-01-25T23:21:23.896Z,95848.00
2023-01-25T23:25:27.746Z,95850.00
2023-01-25T23:29:30.539Z,95847.00
2023-01-25T23:33:34.647Z,95849.00
2023-01-25T23:37:37.408Z,95842.00
2023-01-25T23:41:40.905Z,95837.00
2023-01-25T23:45:44.527Z,95837.00
2023-01-25T23:49:48.699Z,95843.00
2023-01-25T23:53:53.410Z,95841.00
2023-01-25T23:57:56.223Z,95823.00
